createdAt,value
2024-03-24T00:00:47.129Z,961.20
2024-03-24T00:01:47.060Z,961.22
2024-03-24T00:02:47.344Z,961.19
2024-03-24T00:03:47.026Z,961.27
2024-03-24T00:04:47.165Z,961.24
2024-03-24T00:05:47.003Z,961.22
2024-03-24T00:06:47.056Z,961.25
2024-03-24T00:07:47.228Z,961.16
2024-03-24T00:08:47.106Z,961.19
2024-03-24T00:09:47.228Z,961.15
2024-03-24T00:10:47.232Z,961.07
2024-03-24T00:11:47.051Z,961.11
2024-03-24T00:12:47.166Z,961.08
2024-03-24T00:13:46.977Z,961.08
2024-03-24T00:14:47.143Z,961.10
2024-03-24T00:15:46.951Z,961.09
2024-03-24T00:16:47.007Z,961.09
2024-03-24T00:17:47.055Z,961.07
2024-03-24T00:18:47.062Z,961.09
2024-03-24T00:19:46.859Z,961.07
2024-03-24T00:20:46.871Z,961.05
2024-03-24T00:21:46.809Z,961.10
2024-03-24T00:22:46.963Z,961.08
2024-03-24T00:23:46.768Z,961.08
2024-03-24T00:24:46.994Z,961.01
2024-03-24T00:25:46.781Z,961.00
2024-03-24T00:26:46.871Z,960.97
2024-03-24T00:27:46.717Z,960.98
2024-03-24T00:28:46.998Z,960.99
2024-03-24T00:29:46.682Z,960.99
2024-03-24T00:30:46.788Z,960.99
2024-03-24T00:31:46.661Z,961.01
2024-03-24T00:32:46.705Z,961.06
2024-03-24T00:33:46.702Z,961.01
2024-03-24T00:34:46.873Z,960.99
2024-03-24T00:35:46.660Z,960.92
2024-03-24T00:36:46.804Z,960.91
2024-03-24T00:37:46.600Z,960.90
2024-03-24T00:38:46.755Z,960.87
2024-03-24T00:39:46.596Z,960.86
2024-03-24T00:40:46.690Z,960.89
2024-03-24T00:41:46.715Z,960.90
2024-03-24T00:42:46.561Z,960.90
2024-03-24T00:43:46.587Z,960.90
2024-03-24T00:44:46.522Z,960.86
2024-03-24T00:45:46.679Z,960.92
2024-03-24T00:46:46.481Z,960.93
2024-03-24T00:47:46.587Z,961.02
2024-03-24T00:48:46.474Z,961.00
2024-03-24T00:49:46.515Z,961.02
2024-03-24T00:50:46.432Z,960.99
2024-03-24T00:51:46.635Z,960.99
2024-03-24T00:52:46.441Z,960.92
2024-03-24T00:53:46.580Z,960.94
2024-03-24T00:54:46.380Z,960.93
2024-03-24T00:55:46.572Z,960.90
2024-03-24T00:56:46.382Z,960.85
2024-03-24T00:57:46.481Z,960.90
2024-03-24T00:58:46.406Z,960.83
2024-03-24T00:59:47.036Z,960.85
2024-03-24T01:00:46.376Z,960.85
2024-03-24T01:01:46.392Z,960.85
2024-03-24T01:02:46.300Z,960.82
2024-03-24T01:03:46.418Z,960.78
2024-03-24T01:04:46.279Z,960.75
2024-03-24T01:05:46.358Z,960.68
2024-03-24T01:06:46.255Z,960.71
2024-03-24T01:07:46.452Z,960.68
2024-03-24T01:08:46.374Z,960.68
2024-03-24T01:09:46.386Z,960.64
2024-03-24T01:10:46.278Z,960.62
2024-03-24T01:11:46.537Z,960.60
2024-03-24T01:12:46.269Z,960.61
2024-03-24T01:13:46.494Z,960.61
2024-03-24T01:14:46.140Z,960.64
2024-03-24T01:15:46.289Z,960.62
2024-03-24T01:16:46.128Z,960.56
2024-03-24T01:17:46.344Z,960.61
2024-03-24T01:18:46.114Z,960.60
2024-03-24T01:19:46.287Z,960.65
2024-03-24T01:20:46.048Z,960.67
2024-03-24T01:21:46.152Z,960.63
2024-03-24T01:22:46.067Z,960.58
2024-03-24T01:23:46.172Z,960.60
2024-03-24T01:24:46.002Z,960.57
2024-03-24T01:25:46.160Z,960.56
2024-03-24T01:26:45.992Z,960.57
2024-03-24T01:27:46.180Z,960.61
2024-03-24T01:28:46.074Z,960.59
2024-03-24T01:29:45.997Z,960.61
2024-03-24T01:30:45.962Z,960.61
2024-03-24T01:31:46.095Z,960.64
2024-03-24T01:32:45.914Z,960.61
2024-03-24T01:33:46.123Z,960.61
2024-03-24T01:34:46.043Z,960.54
2024-03-24T01:35:45.899Z,960.60
2024-03-24T01:36:45.954Z,960.56
2024-03-24T01:37:45.917Z,960.59
2024-03-24T01:38:46.034Z,960.51
2024-03-24T01:39:45.996Z,960.55
2024-03-24T01:40:45.950Z,960.54
2024-03-24T01:41:45.820Z,960.48
2024-03-24T01:42:45.966Z,960.52
2024-03-24T01:43:45.950Z,960.49
2024-03-24T01:44:45.986Z,960.46
2024-03-24T01:45:46.120Z,960.49
2024-03-24T01:46:45.767Z,960.47
2024-03-24T01:47:45.840Z,960.48
2024-03-24T01:48:45.705Z,960.49
2024-03-24T01:49:45.907Z,960.47
2024-03-24T01:50:45.816Z,960.42
2024-03-24T01:51:45.683Z,960.41
2024-03-24T01:52:45.765Z,960.39
2024-03-24T01:53:45.657Z,960.39
2024-03-24T01:54:45.935Z,960.40
2024-03-24T01:55:45.697Z,960.37
2024-03-24T01:56:45.779Z,960.32
2024-03-24T01:57:45.648Z,960.30
2024-03-24T01:58:45.769Z,960.31
2024-03-24T01:59:45.607Z,960.33
2024-03-24T02:00:45.850Z,960.29
2024-03-24T02:01:45.699Z,960.32
2024-03-24T02:02:45.960Z,960.30
2024-03-24T02:03:45.558Z,960.26
2024-03-24T02:04:45.733Z,960.24
2024-03-24T02:05:45.705Z,960.26
2024-03-24T02:06:45.765Z,960.27
2024-03-24T02:07:45.623Z,960.28
2024-03-24T02:08:45.639Z,960.35
2024-03-24T02:09:45.459Z,960.37
2024-03-24T02:10:45.573Z,960.42
2024-03-24T02:11:45.448Z,960.41
2024-03-24T02:12:45.563Z,960.41
2024-03-24T02:13:45.404Z,960.40
2024-03-24T02:14:45.563Z,960.40
2024-03-24T02:15:45.446Z,960.40
2024-03-24T02:16:45.462Z,960.39
2024-03-24T02:17:46.038Z,960.42
2024-03-24T02:18:46.732Z,960.42
2024-03-24T02:19:45.373Z,960.36
2024-03-24T02:20:45.396Z,960.36
2024-03-24T02:21:45.313Z,960.32
2024-03-24T02:22:45.344Z,960.31
2024-03-24T02:23:45.290Z,960.29
2024-03-24T02:24:45.332Z,960.26
2024-03-24T02:25:45.260Z,960.30
2024-03-24T02:26:45.465Z,960.30
2024-03-24T02:27:45.509Z,960.32
2024-03-24T02:28:45.284Z,960.36
2024-03-24T02:29:45.373Z,960.36
2024-03-24T02:30:45.246Z,960.35
2024-03-24T02:31:45.302Z,960.41
2024-03-24T02:32:45.178Z,960.35
2024-03-24T02:33:45.216Z,960.31
2024-03-24T02:34:45.193Z,960.31
2024-03-24T02:35:45.198Z,960.29
2024-03-24T02:36:45.111Z,960.29
2024-03-24T02:37:45.352Z,960.26
2024-03-24T02:38:45.075Z,960.32
2024-03-24T02:39:45.150Z,960.32
2024-03-24T02:40:47.209Z,960.26
2024-03-24T02:41:45.246Z,960.25
2024-03-24T02:42:45.081Z,960.24
2024-03-24T02:43:45.135Z,960.27
2024-03-24T02:44:45.035Z,960.24
2024-03-24T02:45:45.040Z,960.27
2024-03-24T02:46:45.546Z,960.29
2024-03-24T02:47:45.057Z,960.27
2024-03-24T02:48:44.989Z,960.25
2024-03-24T02:49:44.972Z,960.26
2024-03-24T02:50:44.946Z,960.23
2024-03-24T02:51:45.013Z,960.17
2024-03-24T02:52:44.963Z,960.15
2024-03-24T02:53:45.021Z,960.18
2024-03-24T02:54:44.934Z,960.18
2024-03-24T02:55:44.906Z,960.19
2024-03-24T02:56:44.904Z,960.28
2024-03-24T02:57:44.932Z,960.26
2024-03-24T02:58:44.847Z,960.27
2024-03-24T02:59:44.971Z,960.22
2024-03-24T03:00:44.854Z,960.14
2024-03-24T03:01:44.868Z,960.15
2024-03-24T03:02:44.834Z,960.17
2024-03-24T03:03:44.898Z,960.13
2024-03-24T03:04:44.800Z,960.12
2024-03-24T03:05:44.771Z,960.04
2024-03-24T03:06:44.775Z,960.07
2024-03-24T03:07:44.897Z,960.08
2024-03-24T03:08:44.731Z,960.05
2024-03-24T03:09:45.034Z,960.08
2024-03-24T03:10:44.768Z,960.06
2024-03-24T03:11:44.727Z,960.01
2024-03-24T03:12:44.671Z,960.04
2024-03-24T03:13:45.574Z,960.02
2024-03-24T03:14:44.728Z,960.02
2024-03-24T03:15:44.700Z,959.94
2024-03-24T03:16:44.622Z,959.96
2024-03-24T03:17:44.649Z,959.95
2024-03-24T03:18:44.627Z,959.92
2024-03-24T03:19:44.669Z,959.95
2024-03-24T03:20:44.715Z,959.91
2024-03-24T03:21:44.569Z,959.83
2024-03-24T03:22:44.588Z,959.84
2024-03-24T03:23:44.527Z,959.85
2024-03-24T03:24:44.728Z,959.85
2024-03-24T03:25:44.535Z,959.86
2024-03-24T03:26:44.659Z,959.87
2024-03-24T03:27:44.529Z,959.84
2024-03-24T03:28:44.552Z,959.82
2024-03-24T03:29:44.467Z,959.80
2024-03-24T03:30:44.643Z,959.81
2024-03-24T03:31:44.444Z,959.82
2024-03-24T03:32:44.492Z,959.79
2024-03-24T03:33:44.403Z,959.77
2024-03-24T03:34:44.496Z,959.78
2024-03-24T03:35:44.396Z,959.83
2024-03-24T03:36:44.494Z,959.83
2024-03-24T03:37:44.354Z,959.81
2024-03-24T03:38:44.399Z,959.83
2024-03-24T03:39:44.342Z,959.82
2024-03-24T03:40:45.056Z,959.79
2024-03-24T03:41:44.314Z,959.85
2024-03-24T03:42:44.453Z,959.85
2024-03-24T03:43:44.279Z,959.87
2024-03-24T03:44:44.351Z,959.83
2024-03-24T03:45:44.310Z,959.81
2024-03-24T03:46:44.375Z,959.82
2024-03-24T03:47:44.236Z,959.80
2024-03-24T03:48:44.395Z,959.76
2024-03-24T03:49:44.235Z,959.75
2024-03-24T03:50:45.440Z,959.73
2024-03-24T03:51:44.186Z,959.75
2024-03-24T03:52:44.425Z,959.74
2024-03-24T03:53:44.156Z,959.78
2024-03-24T03:54:45.130Z,959.71
2024-03-24T03:55:44.135Z,959.73
2024-03-24T03:56:44.331Z,959.74
2024-03-24T03:57:44.127Z,959.72
2024-03-24T03:58:45.202Z,959.76
2024-03-24T03:59:44.146Z,959.73
2024-03-24T04:00:44.328Z,959.76
2024-03-24T04:01:44.125Z,959.72
2024-03-24T04:02:44.155Z,959.74
2024-03-24T04:03:44.052Z,959.74
2024-03-24T04:04:44.179Z,959.75
2024-03-24T04:05:44.154Z,959.73
2024-03-24T04:06:44.223Z,959.68
2024-03-24T04:07:44.029Z,959.71
2024-03-24T04:08:44.210Z,959.75
2024-03-24T04:09:43.956Z,959.71
2024-03-24T04:10:45.082Z,959.74
2024-03-24T04:11:43.979Z,959.72
2024-03-24T04:12:44.029Z,959.74
2024-03-24T04:13:43.931Z,959.73
2024-03-24T04:14:44.034Z,959.74
2024-03-24T04:15:43.896Z,959.74
2024-03-24T04:16:43.995Z,959.75
2024-03-24T04:17:43.910Z,959.75
2024-03-24T04:18:44.187Z,959.76
2024-03-24T04:19:43.863Z,959.78
2024-03-24T04:20:43.940Z,959.80
2024-03-24T04:21:43.810Z,959.79
2024-03-24T04:22:44.967Z,959.81
2024-03-24T04:23:43.793Z,959.83
2024-03-24T04:24:44.988Z,959.83
2024-03-24T04:25:43.829Z,959.88
2024-03-24T04:26:43.881Z,959.84
2024-03-24T04:27:43.752Z,959.82
2024-03-24T04:28:43.851Z,959.84
2024-03-24T04:29:43.739Z,959.83
2024-03-24T04:30:43.969Z,959.86
2024-03-24T04:31:43.817Z,959.86
2024-03-24T04:32:43.775Z,959.89
2024-03-24T04:33:43.677Z,959.89
2024-03-24T04:34:43.881Z,959.87
2024-03-24T04:35:43.686Z,959.92
2024-03-24T04:37:04.763Z,959.87
2024-03-24T04:37:43.632Z,959.90
2024-03-24T04:38:44.742Z,959.90
2024-03-24T04:39:43.603Z,959.89
2024-03-24T04:40:44.761Z,959.91
2024-03-24T04:41:43.589Z,959.90
2024-03-24T04:42:44.823Z,959.89
2024-03-24T04:43:43.546Z,959.89
2024-03-24T04:44:43.650Z,959.88
2024-03-24T04:45:43.533Z,959.93
2024-03-24T04:46:43.695Z,959.93
2024-03-24T04:47:43.511Z,959.96
2024-03-24T04:48:43.716Z,959.97
2024-03-24T04:49:43.501Z,959.99
2024-03-24T04:50:43.772Z,959.96
2024-03-24T04:51:43.449Z,959.95
2024-03-24T04:52:45.617Z,959.96
2024-03-24T04:53:43.422Z,959.97
2024-03-24T04:54:43.567Z,960.00
2024-03-24T04:55:43.439Z,959.96
2024-03-24T04:56:43.702Z,959.99
2024-03-24T04:57:43.368Z,959.97
2024-03-24T04:58:43.485Z,959.94
2024-03-24T04:59:43.345Z,959.94
2024-03-24T05:00:43.600Z,959.99
2024-03-24T05:01:43.472Z,959.95
2024-03-24T05:02:43.305Z,959.98
2024-03-24T05:03:43.441Z,959.98
2024-03-24T05:04:44.276Z,960.04
2024-03-24T05:05:43.698Z,960.01
2024-03-24T05:06:43.283Z,960.08
2024-03-24T05:07:43.578Z,960.07
2024-03-24T05:08:43.240Z,960.06
2024-03-24T05:09:43.627Z,960.03
2024-03-24T05:10:43.244Z,960.06
2024-03-24T05:11:43.477Z,959.98
2024-03-24T05:12:43.388Z,960.03
2024-03-24T05:13:43.167Z,960.02
2024-03-24T05:14:43.324Z,960.07
2024-03-24T05:15:44.144Z,960.07
2024-03-24T05:16:43.400Z,960.07
2024-03-24T05:17:43.395Z,960.12
2024-03-24T05:18:43.109Z,960.11
2024-03-24T05:19:43.361Z,960.11
2024-03-24T05:20:43.117Z,960.10
2024-03-24T05:21:43.384Z,960.16
2024-03-24T05:22:43.067Z,960.13
2024-03-24T05:23:43.384Z,960.18
2024-03-24T05:24:43.070Z,960.19
2024-03-24T05:25:43.327Z,960.23
2024-03-24T05:26:43.058Z,960.20
2024-03-24T05:27:43.288Z,960.19
2024-03-24T05:28:50.335Z,960.21
2024-03-24T05:29:43.019Z,960.20
2024-03-24T05:30:43.228Z,960.21
2024-03-24T05:31:43.119Z,960.19
2024-03-24T05:32:43.585Z,960.20
2024-03-24T05:33:43.266Z,960.20
2024-03-24T05:34:42.964Z,960.20
2024-03-24T05:35:43.021Z,960.23
2024-03-24T05:36:43.119Z,960.18
2024-03-24T05:37:43.246Z,960.23
2024-03-24T05:38:43.122Z,960.23
2024-03-24T05:39:42.882Z,960.26
2024-03-24T05:40:43.171Z,960.23
2024-03-24T05:41:42.887Z,960.25
2024-03-24T05:42:42.976Z,960.27
2024-03-24T05:43:42.825Z,960.24
2024-03-24T05:44:43.139Z,960.30
2024-03-24T05:45:42.791Z,960.31
2024-03-24T05:46:43.027Z,960.32
2024-03-24T05:47:42.786Z,960.34
2024-03-24T05:48:42.915Z,960.38
2024-03-24T05:49:42.733Z,960.33
2024-03-24T05:50:42.843Z,960.35
2024-03-24T05:51:42.704Z,960.38
2024-03-24T05:52:42.948Z,960.36
2024-03-24T05:53:42.723Z,960.36
2024-03-24T05:54:42.998Z,960.39
2024-03-24T05:55:42.653Z,960.42
2024-03-24T05:56:42.812Z,960.37
2024-03-24T05:57:42.624Z,960.38
2024-03-24T05:58:42.827Z,960.35
2024-03-24T05:59:42.632Z,960.35
2024-03-24T06:00:42.819Z,960.39
2024-03-24T06:01:44.710Z,960.38
2024-03-24T06:02:42.731Z,960.40
2024-03-24T06:03:42.561Z,960.36
2024-03-24T06:04:42.800Z,960.40
2024-03-24T06:05:42.595Z,960.39
2024-03-24T06:06:42.782Z,960.35
2024-03-24T06:07:42.544Z,960.45
2024-03-24T06:08:42.703Z,960.43
2024-03-24T06:09:42.486Z,960.42
2024-03-24T06:10:42.792Z,960.46
2024-03-24T06:11:42.492Z,960.44
2024-03-24T06:12:44.770Z,960.42
2024-03-24T06:13:42.438Z,960.44
2024-03-24T06:14:42.627Z,960.43
2024-03-24T06:15:42.643Z,960.36
2024-03-24T06:16:42.427Z,960.42
2024-03-24T06:17:42.502Z,960.39
2024-03-24T06:18:42.386Z,960.42
2024-03-24T06:19:42.637Z,960.44
2024-03-24T06:20:42.355Z,960.49
2024-03-24T06:21:57.181Z,960.44
2024-03-24T06:22:42.396Z,960.49
2024-03-24T06:23:42.463Z,960.55
2024-03-24T06:24:42.298Z,960.58
2024-03-24T06:25:42.494Z,960.56
2024-03-24T06:26:42.603Z,960.54
2024-03-24T06:27:42.293Z,960.51
2024-03-24T06:28:42.396Z,960.56
2024-03-24T06:29:42.253Z,960.60
2024-03-24T06:30:42.497Z,960.62
2024-03-24T06:31:46.275Z,960.58
2024-03-24T06:32:42.217Z,960.54
2024-03-24T06:33:42.355Z,960.58
2024-03-24T06:34:42.287Z,960.55
2024-03-24T06:35:42.450Z,960.56
2024-03-24T06:36:42.390Z,960.59
2024-03-24T06:37:42.468Z,960.57
2024-03-24T06:38:42.197Z,960.57
2024-03-24T06:39:42.345Z,960.63
2024-03-24T06:40:42.163Z,960.65
2024-03-24T06:41:42.413Z,960.58
2024-03-24T06:42:42.094Z,960.61
2024-03-24T06:43:42.390Z,960.54
2024-03-24T06:44:42.204Z,960.58
2024-03-24T06:45:42.318Z,960.53
2024-03-24T06:46:42.026Z,960.55
2024-03-24T06:47:42.346Z,960.59
2024-03-24T06:48:42.250Z,960.60
2024-03-24T06:49:42.161Z,960.64
2024-03-24T06:50:41.998Z,960.62
2024-03-24T06:51:42.311Z,960.65
2024-03-24T06:52:42.078Z,960.65
2024-03-24T06:55:03.437Z,960.69
2024-03-24T06:56:04.240Z,960.69
2024-03-24T06:57:04.401Z,960.67
2024-03-24T06:58:04.373Z,960.66
2024-03-24T06:59:04.204Z,960.69
2024-03-24T07:00:04.929Z,960.69
2024-03-24T07:01:04.393Z,960.68
2024-03-24T07:02:04.285Z,960.72
2024-03-24T07:03:05.140Z,960.74
2024-03-24T07:04:04.385Z,960.70
2024-03-24T07:05:04.249Z,960.78
2024-03-24T07:06:04.259Z,960.72
2024-03-24T07:07:04.192Z,960.72
2024-03-24T07:08:04.460Z,960.72
2024-03-24T07:09:04.252Z,960.70
2024-03-24T07:10:05.232Z,960.73
2024-03-24T07:11:04.238Z,960.68
2024-03-24T07:12:04.269Z,960.70
2024-03-24T07:13:04.135Z,960.71
2024-03-24T07:14:04.191Z,960.69
2024-03-24T07:15:04.485Z,960.73
2024-03-24T07:16:04.250Z,960.76
2024-03-24T07:17:04.307Z,960.76
2024-03-24T07:18:04.382Z,960.76
2024-03-24T07:19:04.110Z,960.71
2024-03-24T07:20:04.278Z,960.72
2024-03-24T07:21:04.002Z,960.73
2024-03-24T07:22:04.301Z,960.66
2024-03-24T07:23:04.071Z,960.74
2024-03-24T07:24:04.091Z,960.75
2024-03-24T07:25:03.919Z,960.71
2024-03-24T07:26:05.883Z,960.74
2024-03-24T07:27:03.948Z,960.77
2024-03-24T07:28:03.946Z,960.79
2024-03-24T07:29:03.888Z,960.77
2024-03-24T07:30:04.242Z,960.71
2024-03-24T07:31:03.918Z,960.74
2024-03-24T07:32:04.040Z,960.71
2024-03-24T07:33:03.781Z,960.74
2024-03-24T07:34:04.539Z,960.70
2024-03-24T07:35:05.050Z,960.72
2024-03-24T07:36:03.918Z,960.68
2024-03-24T07:37:03.720Z,960.74
2024-03-24T07:38:03.864Z,960.75
2024-03-24T07:39:03.734Z,960.78
2024-03-24T07:40:03.901Z,960.73
2024-03-24T07:41:03.733Z,960.76
2024-03-24T07:42:06.076Z,960.73
2024-03-24T07:43:03.663Z,960.73
2024-03-24T07:44:03.935Z,960.66
2024-03-24T07:45:03.679Z,960.70
2024-03-24T07:46:03.822Z,960.62
2024-03-24T07:47:03.652Z,960.65
2024-03-24T07:48:03.756Z,960.64
2024-03-24T07:49:04.286Z,960.66
2024-03-24T07:50:03.835Z,960.66
2024-03-24T07:51:03.565Z,960.64
2024-03-24T07:52:04.264Z,960.66
2024-03-24T07:53:03.631Z,960.65
2024-03-24T07:54:03.728Z,960.73
2024-03-24T07:55:03.529Z,960.70
2024-03-24T07:56:03.698Z,960.69
2024-03-24T07:57:04.474Z,960.70
2024-03-24T07:58:03.708Z,960.61
2024-03-24T07:59:04.328Z,960.66
2024-03-24T08:00:03.637Z,960.67
2024-03-24T08:01:03.457Z,960.61
2024-03-24T08:02:03.633Z,960.59
2024-03-24T08:03:03.425Z,960.61
2024-03-24T08:04:03.518Z,960.65
2024-03-24T08:05:03.414Z,960.70
2024-03-24T08:06:03.748Z,960.75
2024-03-24T08:07:03.414Z,960.70
2024-03-24T08:08:03.552Z,960.73
2024-03-24T08:09:03.384Z,960.71
2024-03-24T08:10:03.446Z,960.67
2024-03-24T08:11:03.495Z,960.74
2024-03-24T08:12:03.421Z,960.72
2024-03-24T08:13:03.665Z,960.66
2024-03-24T08:14:03.627Z,960.57
2024-03-24T08:15:04.128Z,960.54
2024-03-24T08:16:03.623Z,960.53
2024-03-24T08:17:03.452Z,960.66
2024-03-24T08:18:04.120Z,960.61
2024-03-24T08:19:03.585Z,960.61
2024-03-24T08:20:03.739Z,960.63
2024-03-24T08:21:03.491Z,960.64
2024-03-24T08:22:03.440Z,960.58
2024-03-24T08:23:03.199Z,960.56
2024-03-24T08:24:03.441Z,960.53
2024-03-24T08:25:03.179Z,960.65
2024-03-24T08:26:03.255Z,960.56
2024-03-24T08:27:03.145Z,960.58
2024-03-24T08:28:03.329Z,960.58
2024-03-24T08:29:03.365Z,960.62
2024-03-24T08:30:03.692Z,960.60
2024-03-24T08:31:03.132Z,960.59
2024-03-24T08:32:04.215Z,960.54
2024-03-24T08:33:03.245Z,960.66
2024-03-24T08:34:03.446Z,960.68
2024-03-24T08:35:03.155Z,960.67
2024-03-24T08:36:03.283Z,960.64
2024-03-24T08:37:03.309Z,960.67
2024-03-24T08:38:03.303Z,960.68
2024-03-24T08:39:03.161Z,960.70
2024-03-24T08:40:03.161Z,960.80
2024-03-24T08:41:02.977Z,960.82
2024-03-24T08:42:03.440Z,960.80
2024-03-24T08:43:03.004Z,960.78
2024-03-24T08:44:03.295Z,960.86
2024-03-24T08:45:02.887Z,960.75
2024-03-24T08:46:03.240Z,960.79
2024-03-24T08:47:03.061Z,960.76
2024-03-24T08:48:03.211Z,960.72
2024-03-24T08:49:03.031Z,960.71
2024-03-24T08:50:03.117Z,960.73
2024-03-24T08:51:03.042Z,960.73
2024-03-24T08:52:02.982Z,960.69
2024-03-24T08:53:02.889Z,960.73
2024-03-24T08:54:03.210Z,960.70
2024-03-24T08:55:02.807Z,960.61
2024-03-24T08:56:04.241Z,960.62
2024-03-24T08:57:02.931Z,960.68
2024-03-24T08:58:03.092Z,960.56
2024-03-24T08:59:03.060Z,960.58
2024-03-24T09:00:04.773Z,960.64
2024-03-24T09:01:04.126Z,960.59
2024-03-24T09:02:05.240Z,960.57
2024-03-24T09:03:02.809Z,960.53
2024-03-24T09:04:03.180Z,960.64
2024-03-24T09:05:02.885Z,960.56
2024-03-24T09:06:02.887Z,960.52
2024-03-24T09:07:02.680Z,960.67
2024-03-24T09:08:03.003Z,960.64
2024-03-24T09:09:02.783Z,960.66
2024-03-24T09:10:03.049Z,960.65
2024-03-24T09:11:02.703Z,960.70
2024-03-24T09:12:02.723Z,960.70
2024-03-24T09:13:02.742Z,960.62
2024-03-24T09:14:04.039Z,960.64
2024-03-24T09:15:02.949Z,960.66
2024-03-24T09:16:04.949Z,960.60
2024-03-24T09:17:02.594Z,960.65
2024-03-24T09:18:03.168Z,960.65
2024-03-24T09:19:02.571Z,960.63
2024-03-24T09:20:02.768Z,960.71
2024-03-24T09:21:02.535Z,960.66
2024-03-24T09:22:04.443Z,960.66
2024-03-24T09:23:02.459Z,960.64
2024-03-24T09:24:02.600Z,960.65
2024-03-24T09:25:02.377Z,960.69
2024-03-24T09:26:02.703Z,960.62
2024-03-24T09:27:02.395Z,960.67
2024-03-24T09:28:16.583Z,960.62
2024-03-24T09:29:02.310Z,960.62
2024-03-24T09:30:02.536Z,960.60
2024-03-24T09:31:02.318Z,960.66
2024-03-24T09:32:02.510Z,960.57
2024-03-24T09:33:02.312Z,960.67
2024-03-24T09:34:02.522Z,960.73
2024-03-24T09:35:11.974Z,960.77
2024-03-24T09:36:02.266Z,960.75
2024-03-24T09:37:02.650Z,960.81
2024-03-24T09:38:02.268Z,960.85
2024-03-24T09:39:02.390Z,960.85
2024-03-24T09:40:02.274Z,960.80
2024-03-24T09:41:02.758Z,960.80
2024-03-24T09:42:02.391Z,960.85
2024-03-24T09:43:02.568Z,960.77
2024-03-24T09:44:02.539Z,960.86
2024-03-24T09:45:02.383Z,960.77
2024-03-24T09:46:02.175Z,960.90
2024-03-24T09:47:02.235Z,960.89
2024-03-24T09:48:02.154Z,960.85
2024-03-24T09:49:02.238Z,960.94
2024-03-24T09:50:02.180Z,960.95
2024-03-24T09:51:02.284Z,960.88
2024-03-24T09:52:02.120Z,960.99
2024-03-24T09:53:02.304Z,961.01
2024-03-24T09:54:02.163Z,960.96
2024-03-24T09:55:02.020Z,960.92
2024-03-24T09:56:02.404Z,960.88
2024-03-24T09:57:02.092Z,960.89
2024-03-24T09:58:10.392Z,960.94
2024-03-24T09:59:01.969Z,960.87
2024-03-24T10:00:02.035Z,960.94
2024-03-24T10:01:01.971Z,961.08
2024-03-24T10:02:02.017Z,961.17
2024-03-24T10:03:01.946Z,961.14
2024-03-24T10:04:02.027Z,961.09
2024-03-24T10:05:01.891Z,961.14
2024-03-24T10:06:02.051Z,961.15
2024-03-24T10:07:01.887Z,961.23
2024-03-24T10:08:02.095Z,961.19
2024-03-24T10:09:01.849Z,961.18
2024-03-24T10:10:02.582Z,961.21
2024-03-24T10:11:01.830Z,961.16
2024-03-24T10:12:01.987Z,961.28
2024-03-24T10:13:01.829Z,961.24
2024-03-24T10:14:01.992Z,961.18
2024-03-24T10:15:01.827Z,961.13
2024-03-24T10:16:01.847Z,961.13
2024-03-24T10:17:01.734Z,961.18
2024-03-24T10:18:01.924Z,961.22
2024-03-24T10:19:01.771Z,961.18
2024-03-24T10:20:02.136Z,961.17
2024-03-24T10:21:02.527Z,961.08
2024-03-24T10:22:01.983Z,961.21
2024-03-24T10:23:01.737Z,961.17
2024-03-24T10:24:02.022Z,961.19
2024-03-24T10:25:01.827Z,961.01
2024-03-24T10:26:01.848Z,960.98
2024-03-24T10:27:01.643Z,960.94
2024-03-24T10:28:01.900Z,960.96
2024-03-24T10:29:01.669Z,960.97
2024-03-24T10:30:02.909Z,960.93
2024-03-24T10:31:01.929Z,960.92
2024-03-24T10:32:03.223Z,960.91
2024-03-24T10:33:01.539Z,960.91
2024-03-24T10:34:01.792Z,960.88
2024-03-24T10:35:03.917Z,960.90
2024-03-24T10:36:03.574Z,960.78
2024-03-24T10:37:01.519Z,960.81
2024-03-24T10:38:01.546Z,960.87
2024-03-24T10:39:01.699Z,960.88
2024-03-24T10:40:01.580Z,960.74
2024-03-24T10:41:01.472Z,960.82
2024-03-24T10:42:01.730Z,960.79
2024-03-24T10:43:01.864Z,960.80
2024-03-24T10:44:01.706Z,960.75
2024-03-24T10:45:01.539Z,960.70
2024-03-24T10:46:01.802Z,960.71
2024-03-24T10:47:02.328Z,960.74
2024-03-24T10:48:01.415Z,960.67
2024-03-24T10:49:01.625Z,960.70
2024-03-24T10:50:01.368Z,960.62
2024-03-24T10:51:01.541Z,960.63
2024-03-24T10:52:01.340Z,960.69
2024-03-24T10:53:01.444Z,960.62
2024-03-24T10:54:01.358Z,960.67
2024-03-24T10:55:01.419Z,960.55
2024-03-24T10:56:01.276Z,960.72
2024-03-24T10:57:01.473Z,960.63
2024-03-24T10:58:01.392Z,960.54
2024-03-24T10:59:02.936Z,960.57
2024-03-24T11:00:01.448Z,960.46
2024-03-24T11:01:01.682Z,960.54
2024-03-24T11:02:01.255Z,960.37
2024-03-24T11:03:01.476Z,960.44
2024-03-24T11:04:01.266Z,960.35
2024-03-24T11:05:01.666Z,960.34
2024-03-24T11:06:02.172Z,960.37
2024-03-24T11:07:01.400Z,960.36
2024-03-24T11:08:01.386Z,960.40
2024-03-24T11:09:01.368Z,960.34
2024-03-24T11:10:01.490Z,960.31
2024-03-24T11:11:01.407Z,960.46
2024-03-24T11:12:01.389Z,960.31
2024-03-24T11:13:01.389Z,960.34
2024-03-24T11:14:01.094Z,960.32
2024-03-24T11:15:01.321Z,960.29
2024-03-24T11:16:02.597Z,960.37
2024-03-24T11:17:01.284Z,960.41
2024-03-24T11:18:01.029Z,960.36
2024-03-24T11:19:01.047Z,960.34
2024-03-24T11:20:01.015Z,960.33
2024-03-24T11:21:01.344Z,960.35
2024-03-24T11:22:00.956Z,960.35
2024-03-24T11:23:01.511Z,960.55
2024-03-24T11:24:01.110Z,960.40
2024-03-24T11:25:01.425Z,960.35
2024-03-24T11:26:00.969Z,960.23
2024-03-24T11:27:01.308Z,960.23
2024-03-24T11:28:00.995Z,960.20
2024-03-24T11:29:00.909Z,960.25
2024-03-24T11:30:01.046Z,960.33
2024-03-24T11:31:00.803Z,960.38
2024-03-24T11:32:01.119Z,960.34
2024-03-24T11:33:01.023Z,960.34
2024-03-24T11:34:01.080Z,960.40
2024-03-24T11:35:00.808Z,960.28
2024-03-24T11:36:01.011Z,960.32
2024-03-24T11:37:00.906Z,960.21
2024-03-24T11:38:00.922Z,960.33
2024-03-24T11:39:00.910Z,960.25
2024-03-24T11:40:02.336Z,960.31
2024-03-24T11:41:00.999Z,960.25
2024-03-24T11:42:01.509Z,960.20
2024-03-24T11:43:00.996Z,960.26
2024-03-24T11:44:01.412Z,960.28
2024-03-24T11:45:00.830Z,960.26
2024-03-24T11:46:01.190Z,960.28
2024-03-24T11:47:01.010Z,960.22
2024-03-24T11:48:01.846Z,960.29
2024-03-24T11:49:00.725Z,960.27
2024-03-24T11:50:01.009Z,960.34
2024-03-24T11:51:00.631Z,960.35
2024-03-24T11:52:01.045Z,960.31
2024-03-24T11:53:00.879Z,960.20
2024-03-24T11:54:00.716Z,960.38
2024-03-24T11:55:00.607Z,960.15
2024-03-24T11:56:00.666Z,960.15
2024-03-24T11:57:01.067Z,960.03
2024-03-24T11:58:00.890Z,960.15
2024-03-24T11:59:00.736Z,960.11
2024-03-24T12:00:00.943Z,960.19
2024-03-24T12:01:00.846Z,960.07
2024-03-24T12:02:00.791Z,960.09
2024-03-24T12:03:00.808Z,960.14
2024-03-24T12:04:00.650Z,960.09
2024-03-24T12:05:00.574Z,960.10
2024-03-24T12:06:00.709Z,960.16
2024-03-24T12:07:00.434Z,960.09
2024-03-24T12:08:00.617Z,960.03
2024-03-24T12:09:01.172Z,960.00
2024-03-24T12:10:00.591Z,959.97
2024-03-24T12:11:00.368Z,959.93
2024-03-24T12:12:00.418Z,960.02
2024-03-24T12:13:00.425Z,960.06
2024-03-24T12:14:00.369Z,959.96
2024-03-24T12:15:01.503Z,959.94
2024-03-24T12:16:00.486Z,959.95
2024-03-24T12:17:00.518Z,959.98
2024-03-24T12:18:00.253Z,960.00
2024-03-24T12:19:00.873Z,959.97
2024-03-24T12:20:00.386Z,959.90
2024-03-24T12:21:00.440Z,959.95
2024-03-24T12:22:00.161Z,960.01
2024-03-24T12:23:00.270Z,959.90
2024-03-24T12:24:00.334Z,959.77
2024-03-24T12:25:00.313Z,959.68
2024-03-24T12:26:00.474Z,959.74
2024-03-24T12:27:00.524Z,959.67
2024-03-24T12:28:01.040Z,959.60
2024-03-24T12:29:00.402Z,959.59
2024-03-24T12:30:00.315Z,959.73